sensor_id;sensor_type;location;lat;lon;timestamp;P1;durP1;ratioP1;P2;durP2;ratioP2
56255;SDS011;57229;51.432;-2.598;2022-11-22T00:00:40;6.97;;;3.50;;
56255;SDS011;57229;51.432;-2.598;2022-11-22T00:03:06;7.43;;;3.70;;
56255;SDS011;57229;51.432;-2.598;2022-11-22T00:05:32;4.47;;;3.20;;
56255;SDS011;57229;51.432;-2.598;2022-11-22T00:07:58;5.78;;;3.47;;
56255;SDS011;57229;51.432;-2.598;2022-11-22T00:10:23;6.25;;;3.70;;
56255;SDS011;57229;51.432;-2.598;2022-11-22T00:12:49;6.00;;;3.50;;
56255;SDS011;57229;51.432;-2.598;2022-11-22T00:15:16;5.88;;;3.20;;
56255;SDS011;57229;51.432;-2.598;2022-11-22T00:17:42;3.70;;;3.30;;
56255;SDS011;57229;51.432;-2.598;2022-11-22T00:20:10;3.17;;;2.90;;
56255;SDS011;57229;51.432;-2.598;2022-11-22T00:22:37;3.83;;;3.30;;
56255;SDS011;57229;51.432;-2.598;2022-11-22T00:25:03;5.28;;;3.30;;
56255;SDS011;57229;51.432;-2.598;2022-11-22T00:27:30;4.35;;;3.22;;
56255;SDS011;57229;51.432;-2.598;2022-11-22T00:29:56;4.68;;;3.40;;
56255;SDS011;57229;51.432;-2.598;2022-11-22T00:32:21;5.72;;;3.42;;
56255;SDS011;57229;51.432;-2.598;2022-11-22T00:34:47;5.55;;;3.40;;
56255;SDS011;57229;51.432;-2.598;2022-11-22T00:37:13;3.45;;;3.10;;
56255;SDS011;57229;51.432;-2.598;2022-11-22T00:39:38;4.47;;;3.60;;
56255;SDS011;57229;51.432;-2.598;2022-11-22T00:42:04;4.25;;;3.33;;
56255;SDS011;57229;51.432;-2.598;2022-11-22T00:44:30;7.05;;;3.20;;
56255;SDS011;57229;51.432;-2.598;2022-11-22T00:46:55;4.53;;;2.90;;
56255;SDS011;57229;51.432;-2.598;2022-11-22T00:49:21;5.57;;;3.10;;
56255;SDS011;57229;51.432;-2.598;2022-11-22T00:51:47;3.58;;;3.00;;
56255;SDS011;57229;51.432;-2.598;2022-11-22T00:54:13;3.50;;;3.20;;
56255;SDS011;57229;51.432;-2.598;2022-11-22T00:56:38;4.47;;;3.00;;
56255;SDS011;57229;51.432;-2.598;2022-11-22T00:59:04;4.20;;;3.10;;
56255;SDS011;57229;51.432;-2.598;2022-11-22T01:01:30;3.45;;;3.08;;
56255;SDS011;57229;51.432;-2.598;2022-11-22T01:03:55;3.53;;;3.03;;
56255;SDS011;57229;51.432;-2.598;2022-11-22T01:06:21;3.88;;;2.95;;
56255;SDS011;57229;51.432;-2.598;2022-11-22T01:08:47;3.20;;;2.70;;
56255;SDS011;57229;51.432;-2.598;2022-11-22T01:11:14;6.07;;;3.00;;
56255;SDS011;57229;51.432;-2.598;2022-11-22T01:13:42;4.13;;;3.10;;
56255;SDS011;57229;51.432;-2.598;2022-11-22T01:16:09;3.83;;;2.90;;
56255;SDS011;57229;51.432;-2.598;2022-11-22T01:18:35;4.10;;;3.08;;
56255;SDS011;57229;51.432;-2.598;2022-11-22T01:21:01;4.57;;;3.15;;
56255;SDS011;57229;51.432;-2.598;2022-11-22T01:23:27;3.80;;;3.30;;
56255;SDS011;57229;51.432;-2.598;2022-11-22T01:25:53;3.50;;;3.00;;
56255;SDS011;57229;51.432;-2.598;2022-11-22T01:28:19;3.78;;;3.20;;
56255;SDS011;57229;51.432;-2.598;2022-11-22T01:30:45;3.95;;;3.10;;
56255;SDS011;57229;51.432;-2.598;2022-11-22T01:33:15;5.05;;;3.20;;
56255;SDS011;57229;51.432;-2.598;2022-11-22T01:35:41;4.50;;;2.78;;
56255;SDS011;57229;51.432;-2.598;2022-11-22T01:38:07;4.65;;;2.90;;
56255;SDS011;57229;51.432;-2.598;2022-11-22T01:40:33;4.00;;;2.88;;
56255;SDS011;57229;51.432;-2.598;2022-11-22T01:42:59;8.45;;;2.83;;
56255;SDS011;57229;51.432;-2.598;2022-11-22T01:48:04;3.00;;;2.78;;
56255;SDS011;57229;51.432;-2.598;2022-11-22T01:50:37;4.68;;;3.00;;
56255;SDS011;57229;51.432;-2.598;2022-11-22T01:53:08;3.72;;;2.78;;
56255;SDS011;57229;51.432;-2.598;2022-11-22T01:55:38;4.60;;;3.08;;
56255;SDS011;57229;51.432;-2.598;2022-11-22T01:58:05;3.40;;;3.10;;
56255;SDS011;57229;51.432;-2.598;2022-11-22T02:00:31;4.13;;;2.88;;
56255;SDS011;57229;51.432;-2.598;2022-11-22T02:02:58;3.03;;;2.78;;
56255;SDS011;57229;51.432;-2.598;2022-11-22T02:05:27;3.95;;;2.95;;
56255;SDS011;57229;51.432;-2.598;2022-11-22T02:11:01;4.45;;;2.85;;
56255;SDS011;57229;51.432;-2.598;2022-11-22T02:13:28;3.25;;;2.92;;
56255;SDS011;57229;51.432;-2.598;2022-11-22T02:15:56;3.63;;;2.85;;
56255;SDS011;57229;51.432;-2.598;2022-11-22T02:18:22;3.25;;;2.88;;
56255;SDS011;57229;51.432;-2.598;2022-11-22T02:20:51;3.42;;;2.95;;
56255;SDS011;57229;51.432;-2.598;2022-11-22T02:26:06;6.15;;;3.05;;
56255;SDS011;57229;51.432;-2.598;2022-11-22T02:28:34;3.30;;;3.00;;
56255;SDS011;57229;51.432;-2.598;2022-11-22T02:31:01;2.80;;;2.60;;
56255;SDS011;57229;51.432;-2.598;2022-11-22T02:33:27;2.85;;;2.65;;
56255;SDS011;57229;51.432;-2.598;2022-11-22T02:35:55;3.55;;;2.53;;
56255;SDS011;57229;51.432;-2.598;2022-11-22T02:38:22;4.53;;;2.78;;
56255;SDS011;57229;51.432;-2.598;2022-11-22T02:40:55;2.63;;;2.50;;
56255;SDS011;57229;51.432;-2.598;2022-11-22T02:43:30;3.25;;;2.67;;
56255;SDS011;57229;51.432;-2.598;2022-11-22T02:46:09;2.97;;;2.65;;
56255;SDS011;57229;51.432;-2.598;2022-11-22T02:48:40;3.60;;;2.85;;
56255;SDS011;57229;51.432;-2.598;2022-11-22T02:51:09;2.90;;;2.67;;
56255;SDS011;57229;51.432;-2.598;2022-11-22T02:53:40;4.07;;;2.60;;
56255;SDS011;57229;51.432;-2.598;2022-11-22T02:56:09;3.28;;;2.95;;
56255;SDS011;57229;51.432;-2.598;2022-11-22T02:58:35;2.90;;;2.70;;
56255;SDS011;57229;51.432;-2.598;2022-11-22T03:01:00;3.35;;;2.90;;
56255;SDS011;57229;51.432;-2.598;2022-11-22T03:03:26;2.90;;;2.65;;
56255;SDS011;57229;51.432;-2.598;2022-11-22T03:05:52;3.22;;;2.63;;
56255;SDS011;57229;51.432;-2.598;2022-11-22T03:08:17;3.10;;;2.60;;
56255;SDS011;57229;51.432;-2.598;2022-11-22T03:10:43;2.88;;;2.50;;
56255;SDS011;57229;51.432;-2.598;2022-11-22T03:13:09;2.97;;;2.70;;
56255;SDS011;57229;51.432;-2.598;2022-11-22T03:15:35;3.17;;;2.85;;
56255;SDS011;57229;51.432;-2.598;2022-11-22T03:18:01;2.70;;;2.50;;
56255;SDS011;57229;51.432;-2.598;2022-11-22T03:20:28;4.00;;;2.85;;
56255;SDS011;57229;51.432;-2.598;2022-11-22T03:22:54;2.88;;;2.67;;
56255;SDS011;57229;51.432;-2.598;2022-11-22T03:25:20;2.70;;;2.50;;
56255;SDS011;57229;51.432;-2.598;2022-11-22T03:27:45;4.32;;;2.63;;
56255;SDS011;57229;51.432;-2.598;2022-11-22T03:30:11;3.00;;;2.70;;
56255;SDS011;57229;51.432;-2.598;2022-11-22T03:32:37;2.85;;;2.60;;
56255;SDS011;57229;51.432;-2.598;2022-11-22T03:35:03;2.92;;;2.63;;
56255;SDS011;57229;51.432;-2.598;2022-11-22T03:37:29;3.17;;;2.83;;
56255;SDS011;57229;51.432;-2.598;2022-11-22T03:39:55;2.95;;;2.60;;
56255;SDS011;57229;51.432;-2.598;2022-11-22T03:42:21;2.80;;;2.60;;
56255;SDS011;57229;51.432;-2.598;2022-11-22T03:44:46;4.00;;;2.53;;
56255;SDS011;57229;51.432;-2.598;2022-11-22T03:47:15;4.55;;;2.88;;
56255;SDS011;57229;51.432;-2.598;2022-11-22T03:49:40;2.80;;;2.60;;
56255;SDS011;57229;51.432;-2.598;2022-11-22T03:52:06;2.90;;;2.70;;
56255;SDS011;57229;51.432;-2.598;2022-11-22T03:54:32;8.40;;;2.75;;
56255;SDS011;57229;51.432;-2.598;2022-11-22T03:56:58;3.20;;;2.60;;
56255;SDS011;57229;51.432;-2.598;2022-11-22T03:59:24;2.92;;;2.72;;
56255;SDS011;57229;51.432;-2.598;2022-11-22T04:01:49;3.10;;;2.80;;
56255;SDS011;57229;51.432;-2.598;2022-11-22T04:04:15;3.17;;;2.67;;
56255;SDS011;57229;51.432;-2.598;2022-11-22T04:06:40;3.00;;;2.70;;
56255;SDS011;57229;51.432;-2.598;2022-11-22T04:09:06;3.25;;;2.50;;
56255;SDS011;57229;51.432;-2.598;2022-11-22T04:11:32;2.78;;;2.58;;
56255;SDS011;57229;51.432;-2.598;2022-11-22T04:13:57;3.67;;;2.70;;
56255;SDS011;57229;51.432;-2.598;2022-11-22T04:16:41;3.20;;;2.90;;
56255;SDS011;57229;51.432;-2.598;2022-11-22T04:19:07;2.70;;;2.50;;
56255;SDS011;57229;51.432;-2.598;2022-11-22T04:21:35;2.50;;;2.40;;
56255;SDS011;57229;51.432;-2.598;2022-11-22T04:24:05;2.80;;;2.60;;
56255;SDS011;57229;51.432;-2.598;2022-11-22T04:26:51;3.75;;;2.60;;
56255;SDS011;57229;51.432;-2.598;2022-11-22T04:29:18;2.67;;;2.42;;
56255;SDS011;57229;51.432;-2.598;2022-11-22T04:31:47;2.90;;;2.60;;
56255;SDS011;57229;51.432;-2.598;2022-11-22T04:34:32;2.70;;;2.50;;
56255;SDS011;57229;51.432;-2.598;2022-11-22T04:36:58;2.85;;;2.58;;
56255;SDS011;57229;51.432;-2.598;2022-11-22T04:39:24;2.65;;;2.50;;
56255;SDS011;57229;51.432;-2.598;2022-11-22T04:41:51;2.90;;;2.67;;
56255;SDS011;57229;51.432;-2.598;2022-11-22T04:44:38;2.90;;;2.60;;
56255;SDS011;57229;51.432;-2.598;2022-11-22T04:47:10;3.22;;;2.90;;
56255;SDS011;57229;51.432;-2.598;2022-11-22T04:50:03;2.97;;;2.78;;
56255;SDS011;57229;51.432;-2.598;2022-11-22T04:52:54;2.90;;;2.60;;
56255;SDS011;57229;51.432;-2.598;2022-11-22T04:55:21;2.72;;;2.50;;
56255;SDS011;57229;51.432;-2.598;2022-11-22T04:57:47;3.55;;;2.60;;
56255;SDS011;57229;51.432;-2.598;2022-11-22T05:00:13;3.03;;;2.47;;
56255;SDS011;57229;51.432;-2.598;2022-11-22T05:02:39;2.97;;;2.67;;
56255;SDS011;57229;51.432;-2.598;2022-11-22T05:05:05;4.50;;;2.80;;
56255;SDS011;57229;51.432;-2.598;2022-11-22T05:07:33;2.78;;;2.42;;
56255;SDS011;57229;51.432;-2.598;2022-11-22T05:09:59;4.72;;;2.60;;
56255;SDS011;57229;51.432;-2.598;2022-11-22T05:12:25;2.80;;;2.60;;
56255;SDS011;57229;51.432;-2.598;2022-11-22T05:14:50;2.70;;;2.50;;
56255;SDS011;57229;51.432;-2.598;2022-11-22T05:17:16;2.75;;;2.42;;
56255;SDS011;57229;51.432;-2.598;2022-11-22T05:19:42;3.08;;;2.78;;
56255;SDS011;57229;51.432;-2.598;2022-11-22T05:22:07;2.63;;;2.40;;
56255;SDS011;57229;51.432;-2.598;2022-11-22T05:24:33;2.97;;;2.78;;
56255;SDS011;57229;51.432;-2.598;2022-11-22T05:26:58;2.67;;;2.47;;
56255;SDS011;57229;51.432;-2.598;2022-11-22T05:29:26;2.60;;;2.50;;
56255;SDS011;57229;51.432;-2.598;2022-11-22T05:31:51;3.00;;;2.50;;
56255;SDS011;57229;51.432;-2.598;2022-11-22T05:34:17;3.80;;;2.60;;
56255;SDS011;57229;51.432;-2.598;2022-11-22T05:36:43;2.83;;;2.63;;
56255;SDS011;57229;51.432;-2.598;2022-11-22T05:39:08;2.72;;;2.40;;
56255;SDS011;57229;51.432;-2.598;2022-11-22T05:41:36;2.92;;;2.60;;
56255;SDS011;57229;51.432;-2.598;2022-11-22T05:44:02;3.00;;;2.70;;
56255;SDS011;57229;51.432;-2.598;2022-11-22T05:46:29;2.88;;;2.67;;
56255;SDS011;57229;51.432;-2.598;2022-11-22T05:48:55;3.03;;;2.78;;
56255;SDS011;57229;51.432;-2.598;2022-11-22T05:51:26;3.05;;;2.75;;
56255;SDS011;57229;51.432;-2.598;2022-11-22T05:53:55;3.40;;;2.70;;
56255;SDS011;57229;51.432;-2.598;2022-11-22T05:56:22;3.55;;;2.60;;
56255;SDS011;57229;51.432;-2.598;2022-11-22T05:58:48;2.92;;;2.70;;
56255;SDS011;57229;51.432;-2.598;2022-11-22T06:01:19;4.32;;;2.80;;
56255;SDS011;57229;51.432;-2.598;2022-11-22T06:03:46;2.90;;;2.70;;
56255;SDS011;57229;51.432;-2.598;2022-11-22T06:06:15;3.53;;;2.90;;
56255;SDS011;57229;51.432;-2.598;2022-11-22T06:08:42;3.17;;;2.83;;
56255;SDS011;57229;51.432;-2.598;2022-11-22T06:11:18;3.75;;;2.95;;
56255;SDS011;57229;51.432;-2.598;2022-11-22T06:13:45;3.15;;;2.90;;
56255;SDS011;57229;51.432;-2.598;2022-11-22T06:16:13;3.10;;;2.80;;
56255;SDS011;57229;51.432;-2.598;2022-11-22T06:18:39;3.92;;;2.65;;
56255;SDS011;57229;51.432;-2.598;2022-11-22T06:21:06;3.80;;;3.03;;
56255;SDS011;57229;51.432;-2.598;2022-11-22T06:23:35;3.22;;;2.83;;
56255;SDS011;57229;51.432;-2.598;2022-11-22T06:26:02;4.22;;;2.85;;
56255;SDS011;57229;51.432;-2.598;2022-11-22T06:28:30;3.03;;;2.75;;
56255;SDS011;57229;51.432;-2.598;2022-11-22T06:31:02;3.05;;;2.85;;
56255;SDS011;57229;51.432;-2.598;2022-11-22T06:33:29;3.42;;;2.80;;
56255;SDS011;57229;51.432;-2.598;2022-11-22T06:36:01;4.22;;;3.20;;
56255;SDS011;57229;51.432;-2.598;2022-11-22T06:38:28;3.10;;;2.80;;
56255;SDS011;57229;51.432;-2.598;2022-11-22T06:40:57;3.38;;;2.90;;
56255;SDS011;57229;51.432;-2.598;2022-11-22T06:43:28;4.00;;;3.00;;
56255;SDS011;57229;51.432;-2.598;2022-11-22T06:45:57;3.20;;;2.83;;
56255;SDS011;57229;51.432;-2.598;2022-11-22T06:48:24;3.42;;;2.88;;
56255;SDS011;57229;51.432;-2.598;2022-11-22T06:50:51;4.50;;;3.00;;
56255;SDS011;57229;51.432;-2.598;2022-11-22T06:53:16;3.90;;;3.17;;
56255;SDS011;57229;51.432;-2.598;2022-11-22T06:55:42;4.38;;;3.10;;
56255;SDS011;57229;51.432;-2.598;2022-11-22T06:58:08;3.63;;;3.33;;
56255;SDS011;57229;51.432;-2.598;2022-11-22T07:00:33;4.82;;;3.30;;
56255;SDS011;57229;51.432;-2.598;2022-11-22T07:02:59;3.35;;;3.00;;
56255;SDS011;57229;51.432;-2.598;2022-11-22T07:05:25;3.70;;;3.20;;
56255;SDS011;57229;51.432;-2.598;2022-11-22T07:07:50;5.88;;;3.00;;
56255;SDS011;57229;51.432;-2.598;2022-11-22T07:10:16;4.55;;;3.30;;
56255;SDS011;57229;51.432;-2.598;2022-11-22T07:12:42;4.03;;;3.17;;
56255;SDS011;57229;51.432;-2.598;2022-11-22T07:15:07;3.70;;;3.05;;
56255;SDS011;57229;51.432;-2.598;2022-11-22T07:17:34;3.30;;;3.00;;
56255;SDS011;57229;51.432;-2.598;2022-11-22T07:19:59;5.57;;;3.60;;
56255;SDS011;57229;51.432;-2.598;2022-11-22T07:22:25;6.35;;;3.20;;
56255;SDS011;57229;51.432;-2.598;2022-11-22T07:24:51;4.13;;;3.35;;
56255;SDS011;57229;51.432;-2.598;2022-11-22T07:27:16;6.20;;;3.70;;
56255;SDS011;57229;51.432;-2.598;2022-11-22T07:29:42;3.90;;;3.40;;
56255;SDS011;57229;51.432;-2.598;2022-11-22T07:32:08;5.32;;;2.90;;
56255;SDS011;57229;51.432;-2.598;2022-11-22T07:34:33;9.40;;;3.67;;
56255;SDS011;57229;51.432;-2.598;2022-11-22T07:36:59;14.60;;;3.50;;
56255;SDS011;57229;51.432;-2.598;2022-11-22T07:39:25;9.70;;;3.15;;
56255;SDS011;57229;51.432;-2.598;2022-11-22T07:41:50;14.38;;;3.97;;
56255;SDS011;57229;51.432;-2.598;2022-11-22T07:44:16;7.93;;;3.20;;
56255;SDS011;57229;51.432;-2.598;2022-11-22T07:46:42;9.75;;;3.40;;
56255;SDS011;57229;51.432;-2.598;2022-11-22T07:49:08;9.38;;;3.70;;
56255;SDS011;57229;51.432;-2.598;2022-11-22T07:51:33;13.63;;;3.80;;
56255;SDS011;57229;51.432;-2.598;2022-11-22T07:53:59;7.20;;;3.60;;
56255;SDS011;57229;51.432;-2.598;2022-11-22T07:56:25;11.15;;;3.47;;
56255;SDS011;57229;51.432;-2.598;2022-11-22T07:58:53;8.25;;;4.40;;
56255;SDS011;57229;51.432;-2.598;2022-11-22T08:01:19;5.07;;;3.33;;
56255;SDS011;57229;51.432;-2.598;2022-11-22T08:03:45;5.85;;;3.47;;
56255;SDS011;57229;51.432;-2.598;2022-11-22T08:06:11;9.02;;;3.80;;
56255;SDS011;57229;51.432;-2.598;2022-11-22T08:08:37;7.38;;;3.72;;
56255;SDS011;57229;51.432;-2.598;2022-11-22T08:11:04;5.63;;;3.90;;
56255;SDS011;57229;51.432;-2.598;2022-11-22T08:13:30;4.80;;;3.80;;
56255;SDS011;57229;51.432;-2.598;2022-11-22T08:16:01;6.03;;;3.78;;
56255;SDS011;57229;51.432;-2.598;2022-11-22T08:18:33;7.30;;;3.80;;
56255;SDS011;57229;51.432;-2.598;2022-11-22T08:21:07;8.00;;;3.45;;
56255;SDS011;57229;51.432;-2.598;2022-11-22T08:23:34;7.20;;;3.40;;
56255;SDS011;57229;51.432;-2.598;2022-11-22T08:26:00;4.38;;;3.22;;
56255;SDS011;57229;51.432;-2.598;2022-11-22T08:28:26;5.70;;;3.55;;
56255;SDS011;57229;51.432;-2.598;2022-11-22T08:31:02;9.27;;;3.33;;
56255;SDS011;57229;51.432;-2.598;2022-11-22T08:33:30;6.65;;;3.60;;
56255;SDS011;57229;51.432;-2.598;2022-11-22T08:35:56;7.07;;;3.63;;
56255;SDS011;57229;51.432;-2.598;2022-11-22T08:38:22;4.65;;;3.70;;
56255;SDS011;57229;51.432;-2.598;2022-11-22T08:40:48;3.95;;;3.55;;
56255;SDS011;57229;51.432;-2.598;2022-11-22T08:43:14;4.50;;;3.70;;
56255;SDS011;57229;51.432;-2.598;2022-11-22T08:45:40;4.68;;;3.60;;
56255;SDS011;57229;51.432;-2.598;2022-11-22T08:48:06;5.28;;;3.78;;
56255;SDS011;57229;51.432;-2.598;2022-11-22T08:50:32;7.60;;;3.88;;
56255;SDS011;57229;51.432;-2.598;2022-11-22T08:52:59;5.57;;;4.00;;
56255;SDS011;57229;51.432;-2.598;2022-11-22T08:55:25;5.90;;;4.07;;
56255;SDS011;57229;51.432;-2.598;2022-11-22T08:57:51;7.47;;;4.03;;
56255;SDS011;57229;51.432;-2.598;2022-11-22T09:00:17;10.88;;;4.18;;
56255;SDS011;57229;51.432;-2.598;2022-11-22T09:02:43;8.82;;;4.15;;
56255;SDS011;57229;51.432;-2.598;2022-11-22T09:05:08;7.43;;;4.07;;
56255;SDS011;57229;51.432;-2.598;2022-11-22T09:07:34;7.28;;;3.75;;
56255;SDS011;57229;51.432;-2.598;2022-11-22T09:10:00;6.70;;;3.70;;
56255;SDS011;57229;51.432;-2.598;2022-11-22T09:12:25;5.55;;;4.30;;
56255;SDS011;57229;51.432;-2.598;2022-11-22T09:14:51;9.02;;;4.07;;
56255;SDS011;57229;51.432;-2.598;2022-11-22T09:17:17;9.02;;;4.13;;
56255;SDS011;57229;51.432;-2.598;2022-11-22T09:19:42;5.40;;;4.15;;
56255;SDS011;57229;51.432;-2.598;2022-11-22T09:22:08;6.25;;;4.05;;
56255;SDS011;57229;51.432;-2.598;2022-11-22T09:24:34;4.63;;;3.90;;
56255;SDS011;57229;51.432;-2.598;2022-11-22T09:26:59;8.25;;;4.00;;
56255;SDS011;57229;51.432;-2.598;2022-11-22T09:29:25;6.57;;;4.15;;
56255;SDS011;57229;51.432;-2.598;2022-11-22T09:31:51;4.60;;;3.70;;
56255;SDS011;57229;51.432;-2.598;2022-11-22T09:34:17;9.45;;;4.40;;
56255;SDS011;57229;51.432;-2.598;2022-11-22T09:36:43;5.35;;;4.35;;
56255;SDS011;57229;51.432;-2.598;2022-11-22T09:39:08;7.00;;;4.05;;
56255;SDS011;57229;51.432;-2.598;2022-11-22T09:47:11;9.15;;;4.25;;
56255;SDS011;57229;51.432;-2.598;2022-11-22T09:49:57;4.68;;;3.70;;
56255;SDS011;57229;51.432;-2.598;2022-11-22T09:52:43;8.45;;;4.15;;
56255;SDS011;57229;51.432;-2.598;2022-11-22T10:00:32;7.65;;;4.07;;
56255;SDS011;57229;51.432;-2.598;2022-11-22T10:03:07;7.25;;;4.07;;
56255;SDS011;57229;51.432;-2.598;2022-11-22T10:05:48;4.53;;;3.80;;
56255;SDS011;57229;51.432;-2.598;2022-11-22T10:10:57;6.32;;;4.10;;
56255;SDS011;57229;51.432;-2.598;2022-11-22T10:13:36;3.78;;;3.45;;
56255;SDS011;57229;51.432;-2.598;2022-11-22T10:16:13;5.47;;;4.00;;
56255;SDS011;57229;51.432;-2.598;2022-11-22T10:18:59;3.97;;;3.58;;
56255;SDS011;57229;51.432;-2.598;2022-11-22T10:21:34;4.50;;;3.85;;
56255;SDS011;57229;51.432;-2.598;2022-11-22T10:23:59;4.97;;;3.60;;
56255;SDS011;57229;51.432;-2.598;2022-11-22T10:26:26;7.07;;;3.70;;
56255;SDS011;57229;51.432;-2.598;2022-11-22T10:31:29;6.13;;;3.45;;
56255;SDS011;57229;51.432;-2.598;2022-11-22T10:34:03;4.07;;;3.67;;
56255;SDS011;57229;51.432;-2.598;2022-11-22T10:37:13;4.72;;;3.75;;
56255;SDS011;57229;51.432;-2.598;2022-11-22T10:42:26;4.13;;;3.53;;
56255;SDS011;57229;51.432;-2.598;2022-11-22T10:45:23;4.25;;;3.42;;
56255;SDS011;57229;51.432;-2.598;2022-11-22T10:51:01;6.43;;;3.67;;
56255;SDS011;57229;51.432;-2.598;2022-11-22T11:07:29;5.40;;;3.42;;
56255;SDS011;57229;51.432;-2.598;2022-11-22T11:09:57;3.60;;;3.30;;
56255;SDS011;57229;51.432;-2.598;2022-11-22T11:12:42;3.40;;;3.10;;
56255;SDS011;57229;51.432;-2.598;2022-11-22T11:21:05;5.20;;;3.55;;
56255;SDS011;57229;51.432;-2.598;2022-11-22T11:23:32;3.97;;;3.20;;
56255;SDS011;57229;51.432;-2.598;2022-11-22T11:26:12;4.53;;;3.50;;
56255;SDS011;57229;51.432;-2.598;2022-11-22T11:28:46;4.15;;;3.50;;
56255;SDS011;57229;51.432;-2.598;2022-11-22T11:31:12;4.38;;;3.60;;
56255;SDS011;57229;51.432;-2.598;2022-11-22T11:33:41;4.13;;;3.17;;
56255;SDS011;57229;51.432;-2.598;2022-11-22T11:36:09;3.75;;;3.40;;
56255;SDS011;57229;51.432;-2.598;2022-11-22T11:41:17;3.83;;;3.40;;
56255;SDS011;57229;51.432;-2.598;2022-11-22T11:43:55;3.35;;;3.13;;
56255;SDS011;57229;51.432;-2.598;2022-11-22T11:46:27;3.38;;;3.08;;
56255;SDS011;57229;51.432;-2.598;2022-11-22T11:49:09;3.80;;;3.50;;
56255;SDS011;57229;51.432;-2.598;2022-11-22T11:51:43;3.75;;;3.45;;
56255;SDS011;57229;51.432;-2.598;2022-11-22T11:54:17;3.60;;;3.30;;
56255;SDS011;57229;51.432;-2.598;2022-11-22T11:56:47;3.83;;;3.20;;
56255;SDS011;57229;51.432;-2.598;2022-11-22T11:59:14;3.90;;;3.60;;
56255;SDS011;57229;51.432;-2.598;2022-11-22T12:02:02;3.75;;;3.30;;
56255;SDS011;57229;51.432;-2.598;2022-11-22T12:04:33;4.43;;;3.40;;
56255;SDS011;57229;51.432;-2.598;2022-11-22T12:15:27;4.45;;;3.60;;
56255;SDS011;57229;51.432;-2.598;2022-11-22T12:26:06;3.60;;;3.20;;
56255;SDS011;57229;51.432;-2.598;2022-11-22T12:28:32;3.17;;;2.88;;
56255;SDS011;57229;51.432;-2.598;2022-11-22T12:31:06;4.03;;;3.58;;
56255;SDS011;57229;51.432;-2.598;2022-11-22T12:33:45;3.40;;;3.10;;
56255;SDS011;57229;51.432;-2.598;2022-11-22T12:36:16;3.42;;;3.13;;
56255;SDS011;57229;51.432;-2.598;2022-11-22T12:39:03;3.33;;;2.97;;
56255;SDS011;57229;51.432;-2.598;2022-11-22T12:41:30;3.20;;;3.00;;
56255;SDS011;57229;51.432;-2.598;2022-11-22T12:44:01;3.50;;;3.10;;
56255;SDS011;57229;51.432;-2.598;2022-11-22T12:49:04;3.80;;;3.10;;
56255;SDS011;57229;51.432;-2.598;2022-11-22T12:51:51;4.45;;;3.40;;
56255;SDS011;57229;51.432;-2.598;2022-11-22T12:54:54;3.30;;;3.10;;
56255;SDS011;57229;51.432;-2.598;2022-11-22T12:57:17;3.63;;;3.03;;
56255;SDS011;57229;51.432;-2.598;2022-11-22T13:05:28;3.22;;;2.70;;
56255;SDS011;57229;51.432;-2.598;2022-11-22T13:11:05;3.20;;;2.90;;
56255;SDS011;57229;51.432;-2.598;2022-11-22T13:13:42;3.20;;;2.90;;
56255;SDS011;57229;51.432;-2.598;2022-11-22T13:16:12;4.70;;;2.97;;
56255;SDS011;57229;51.432;-2.598;2022-11-22T13:19:00;3.78;;;2.80;;
56255;SDS011;57229;51.432;-2.598;2022-11-22T13:24:36;3.47;;;3.17;;
56255;SDS011;57229;51.432;-2.598;2022-11-22T13:32:46;2.90;;;2.67;;
56255;SDS011;57229;51.432;-2.598;2022-11-22T13:37:41;4.25;;;3.22;;
56255;SDS011;57229;51.432;-2.598;2022-11-22T13:40:19;3.80;;;2.95;;
56255;SDS011;57229;51.432;-2.598;2022-11-22T13:45:45;4.40;;;3.20;;
56255;SDS011;57229;51.432;-2.598;2022-11-22T13:48:11;2.90;;;2.60;;
56255;SDS011;57229;51.432;-2.598;2022-11-22T13:53:19;3.28;;;3.00;;
56255;SDS011;57229;51.432;-2.598;2022-11-22T13:55:45;3.35;;;2.80;;
56255;SDS011;57229;51.432;-2.598;2022-11-22T14:00:55;3.20;;;2.90;;
56255;SDS011;57229;51.432;-2.598;2022-11-22T14:03:34;3.80;;;2.92;;
56255;SDS011;57229;51.432;-2.598;2022-11-22T14:06:13;4.60;;;2.80;;
56255;SDS011;57229;51.432;-2.598;2022-11-22T14:14:57;2.70;;;2.50;;
56255;SDS011;57229;51.432;-2.598;2022-11-22T14:31:27;3.05;;;2.83;;
56255;SDS011;57229;51.432;-2.598;2022-11-22T14:34:13;2.70;;;2.50;;
56255;SDS011;57229;51.432;-2.598;2022-11-22T14:36:39;3.92;;;2.72;;
56255;SDS011;57229;51.432;-2.598;2022-11-22T14:47:57;3.22;;;2.90;;
56255;SDS011;57229;51.432;-2.598;2022-11-22T14:53:16;3.10;;;2.78;;
56255;SDS011;57229;51.432;-2.598;2022-11-22T14:55:57;6.72;;;3.50;;
56255;SDS011;57229;51.432;-2.598;2022-11-22T15:01:27;8.13;;;3.10;;
56255;SDS011;57229;51.432;-2.598;2022-11-22T15:04:28;3.97;;;2.83;;
56255;SDS011;57229;51.432;-2.598;2022-11-22T15:12:46;8.00;;;3.80;;
56255;SDS011;57229;51.432;-2.598;2022-11-22T15:15:37;8.00;;;4.18;;
56255;SDS011;57229;51.432;-2.598;2022-11-22T15:20:53;7.57;;;4.55;;
56255;SDS011;57229;51.432;-2.598;2022-11-22T15:23:20;9.13;;;4.88;;
56255;SDS011;57229;51.432;-2.598;2022-11-22T15:26:00;11.88;;;5.43;;
56255;SDS011;57229;51.432;-2.598;2022-11-22T15:28:28;12.80;;;6.00;;
56255;SDS011;57229;51.432;-2.598;2022-11-22T15:31:00;13.05;;;6.32;;
56255;SDS011;57229;51.432;-2.598;2022-11-22T15:33:28;12.93;;;6.68;;
56255;SDS011;57229;51.432;-2.598;2022-11-22T15:38:39;12.93;;;7.07;;
56255;SDS011;57229;51.432;-2.598;2022-11-22T15:41:13;13.65;;;7.82;;
56255;SDS011;57229;51.432;-2.598;2022-11-22T15:43:41;16.43;;;7.80;;
56255;SDS011;57229;51.432;-2.598;2022-11-22T15:46:08;15.25;;;8.02;;
56255;SDS011;57229;51.432;-2.598;2022-11-22T15:48:39;13.85;;;8.82;;
56255;SDS011;57229;51.432;-2.598;2022-11-22T15:53:33;16.00;;;9.70;;
56255;SDS011;57229;51.432;-2.598;2022-11-22T16:02:09;20.50;;;11.23;;
56255;SDS011;57229;51.432;-2.598;2022-11-22T16:07:19;20.00;;;12.15;;
56255;SDS011;57229;51.432;-2.598;2022-11-22T16:09:50;20.02;;;12.23;;
56255;SDS011;57229;51.432;-2.598;2022-11-22T16:12:37;18.38;;;12.48;;
56255;SDS011;57229;51.432;-2.598;2022-11-22T16:15:24;20.25;;;12.57;;
56255;SDS011;57229;51.432;-2.598;2022-11-22T16:17:55;22.60;;;13.50;;
56255;SDS011;57229;51.432;-2.598;2022-11-22T16:23:35;24.58;;;14.32;;
56255;SDS011;57229;51.432;-2.598;2022-11-22T16:28:47;26.67;;;15.25;;
56255;SDS011;57229;51.432;-2.598;2022-11-22T16:31:16;26.85;;;15.35;;
56255;SDS011;57229;51.432;-2.598;2022-11-22T16:33:53;25.02;;;14.05;;
56255;SDS011;57229;51.432;-2.598;2022-11-22T16:36:20;24.70;;;15.43;;
56255;SDS011;57229;51.432;-2.598;2022-11-22T16:38:47;25.17;;;14.73;;
56255;SDS011;57229;51.432;-2.598;2022-11-22T16:41:19;24.02;;;15.07;;
56255;SDS011;57229;51.432;-2.598;2022-11-22T16:43:47;26.90;;;15.10;;
56255;SDS011;57229;51.432;-2.598;2022-11-22T16:46:16;25.20;;;15.05;;
56255;SDS011;57229;51.432;-2.598;2022-11-22T16:48:42;25.45;;;15.15;;
56255;SDS011;57229;51.432;-2.598;2022-11-22T16:51:12;25.33;;;14.55;;
56255;SDS011;57229;51.432;-2.598;2022-11-22T16:53:46;24.77;;;14.85;;
56255;SDS011;57229;51.432;-2.598;2022-11-22T16:58:46;20.75;;;12.95;;
56255;SDS011;57229;51.432;-2.598;2022-11-22T17:01:14;19.38;;;13.55;;
56255;SDS011;57229;51.432;-2.598;2022-11-22T17:03:43;23.38;;;15.27;;
56255;SDS011;57229;51.432;-2.598;2022-11-22T17:06:19;21.33;;;13.90;;
56255;SDS011;57229;51.432;-2.598;2022-11-22T17:08:47;23.88;;;14.50;;
56255;SDS011;57229;51.432;-2.598;2022-11-22T17:11:15;22.10;;;14.13;;
56255;SDS011;57229;51.432;-2.598;2022-11-22T17:13:42;25.52;;;14.77;;
56255;SDS011;57229;51.432;-2.598;2022-11-22T17:16:11;27.80;;;14.75;;
56255;SDS011;57229;51.432;-2.598;2022-11-22T17:18:40;23.02;;;13.63;;
56255;SDS011;57229;51.432;-2.598;2022-11-22T17:21:12;24.95;;;13.88;;
56255;SDS011;57229;51.432;-2.598;2022-11-22T17:23:39;20.08;;;14.07;;
56255;SDS011;57229;51.432;-2.598;2022-11-22T17:26:05;25.50;;;14.30;;
56255;SDS011;57229;51.432;-2.598;2022-11-22T17:28:30;23.73;;;14.27;;